sensor_id;sensor_type;location;lat;lon;timestamp;P1;durP1;ratioP1;P2;durP2;ratioP2
9280;SDS011;4679;47.966;7.958;2023-03-23T07:06:43;1.47;;;0.50;;
9280;SDS011;4679;47.966;7.958;2023-03-23T07:08:45;0.60;;;0.60;;
9280;SDS011;4679;47.966;7.958;2023-03-23T07:10:47;1.90;;;0.80;;
9280;SDS011;4679;47.966;7.958;2023-03-23T07:12:52;0.80;;;0.60;;
9280;SDS011;4679;47.966;7.958;2023-03-23T07:14:53;1.33;;;0.70;;
9280;SDS011;4679;47.966;7.958;2023-03-23T07:16:55;1.10;;;0.60;;
9280;SDS011;4679;47.966;7.958;2023-03-23T07:18:57;1.60;;;0.80;;
9280;SDS011;4679;47.966;7.958;2023-03-23T07:20:59;0.83;;;0.53;;
9280;SDS011;4679;47.966;7.958;2023-03-23T07:23:02;0.97;;;0.60;;
9280;SDS011;4679;47.966;7.958;2023-03-23T07:25:05;0.93;;;0.67;;
9280;SDS011;4679;47.966;7.958;2023-03-23T07:27:08;1.17;;;0.50;;
9280;SDS011;4679;47.966;7.958;2023-03-23T07:29:10;1.20;;;0.60;;
9280;SDS011;4679;47.966;7.958;2023-03-23T07:31:12;1.60;;;0.70;;
9280;SDS011;4679;47.966;7.958;2023-03-23T07:33:13;0.47;;;0.47;;
9280;SDS011;4679;47.966;7.958;2023-03-23T07:35:15;0.60;;;0.60;;
9280;SDS011;4679;47.966;7.958;2023-03-23T07:37:17;0.60;;;0.60;;
9280;SDS011;4679;47.966;7.958;2023-03-23T07:39:20;1.27;;;0.40;;
9280;SDS011;4679;47.966;7.958;2023-03-23T07:41:24;0.93;;;0.70;;
9280;SDS011;4679;47.966;7.958;2023-03-23T07:43:25;1.37;;;0.60;;
9280;SDS011;4679;47.966;7.958;2023-03-23T07:45:27;1.67;;;0.67;;
9280;SDS011;4679;47.966;7.958;2023-03-23T07:47:30;0.70;;;0.70;;
9280;SDS011;4679;47.966;7.958;2023-03-23T07:49:32;2.90;;;0.70;;
9280;SDS011;4679;47.966;7.958;2023-03-23T07:51:34;1.00;;;0.70;;
9280;SDS011;4679;47.966;7.958;2023-03-23T07:53:38;0.60;;;0.60;;
9280;SDS011;4679;47.966;7.958;2023-03-23T07:55:41;0.70;;;0.70;;
9280;SDS011;4679;47.966;7.958;2023-03-23T07:57:43;3.30;;;0.70;;
9280;SDS011;4679;47.966;7.958;2023-03-23T07:59:45;0.80;;;0.80;;
9280;SDS011;4679;47.966;7.958;2023-03-23T08:01:47;1.67;;;0.80;;
9280;SDS011;4679;47.966;7.958;2023-03-23T08:03:49;1.97;;;0.87;;
9280;SDS011;4679;47.966;7.958;2023-03-23T08:05:51;2.90;;;1.00;;
9280;SDS011;4679;47.966;7.958;2023-03-23T08:07:53;1.10;;;0.93;;
9280;SDS011;4679;47.966;7.958;2023-03-23T08:09:55;0.67;;;0.67;;
9280;SDS011;4679;47.966;7.958;2023-03-23T08:11:58;1.33;;;0.90;;
9280;SDS011;4679;47.966;7.958;2023-03-23T08:14:00;1.83;;;0.60;;
9280;SDS011;4679;47.966;7.958;2023-03-23T08:16:02;0.80;;;0.77;;
9280;SDS011;4679;47.966;7.958;2023-03-23T08:18:05;1.00;;;0.80;;
9280;SDS011;4679;47.966;7.958;2023-03-23T08:20:07;1.40;;;0.70;;
9280;SDS011;4679;47.966;7.958;2023-03-23T08:22:12;1.20;;;1.00;;
9280;SDS011;4679;47.966;7.958;2023-03-23T08:24:15;1.40;;;0.80;;
9280;SDS011;4679;47.966;7.958;2023-03-23T08:26:16;1.63;;;1.07;;
9280;SDS011;4679;47.966;7.958;2023-03-23T08:28:19;1.07;;;0.90;;
9280;SDS011;4679;47.966;7.958;2023-03-23T08:30:21;2.00;;;0.80;;
9280;SDS011;4679;47.966;7.958;2023-03-23T08:32:24;0.70;;;0.70;;
9280;SDS011;4679;47.966;7.958;2023-03-23T08:34:26;1.17;;;0.70;;
9280;SDS011;4679;47.966;7.958;2023-03-23T08:36:29;1.33;;;0.90;;
9280;SDS011;4679;47.966;7.958;2023-03-23T08:38:30;0.80;;;0.77;;
9280;SDS011;4679;47.966;7.958;2023-03-23T08:40:32;1.57;;;0.90;;
9280;SDS011;4679;47.966;7.958;2023-03-23T08:42:34;0.70;;;0.70;;
9280;SDS011;4679;47.966;7.958;2023-03-23T08:44:37;0.97;;;0.80;;
9280;SDS011;4679;47.966;7.958;2023-03-23T08:46:39;1.07;;;1.00;;
9280;SDS011;4679;47.966;7.958;2023-03-23T08:48:40;2.17;;;0.90;;
9280;SDS011;4679;47.966;7.958;2023-03-23T08:50:43;1.80;;;1.10;;
9280;SDS011;4679;47.966;7.958;2023-03-23T08:52:45;1.93;;;1.10;;
9280;SDS011;4679;47.966;7.958;2023-03-23T08:54:47;1.00;;;1.00;;
9280;SDS011;4679;47.966;7.958;2023-03-23T08:56:49;2.20;;;1.30;;
9280;SDS011;4679;47.966;7.958;2023-03-23T08:58:51;3.27;;;1.30;;
9280;SDS011;4679;47.966;7.958;2023-03-23T09:00:54;1.70;;;1.27;;
9280;SDS011;4679;47.966;7.958;2023-03-23T09:02:56;2.23;;;1.30;;
9280;SDS011;4679;47.966;7.958;2023-03-23T09:04:58;2.17;;;1.30;;
9280;SDS011;4679;47.966;7.958;2023-03-23T09:06:59;1.80;;;1.20;;
9280;SDS011;4679;47.966;7.958;2023-03-23T09:09:01;1.53;;;1.10;;
9280;SDS011;4679;47.966;7.958;2023-03-23T09:11:08;1.40;;;1.00;;
9280;SDS011;4679;47.966;7.958;2023-03-23T09:13:10;1.90;;;1.30;;
9280;SDS011;4679;47.966;7.958;2023-03-23T09:15:13;1.47;;;1.37;;
9280;SDS011;4679;47.966;7.958;2023-03-23T09:17:18;1.67;;;1.57;;
9280;SDS011;4679;47.966;7.958;2023-03-23T09:19:20;1.67;;;1.30;;
9280;SDS011;4679;47.966;7.958;2023-03-23T09:21:22;1.50;;;1.40;;
9280;SDS011;4679;47.966;7.958;2023-03-23T09:23:24;1.50;;;1.40;;
9280;SDS011;4679;47.966;7.958;2023-03-23T09:25:26;1.40;;;1.30;;
9280;SDS011;4679;47.966;7.958;2023-03-23T09:27:28;2.20;;;1.50;;
9280;SDS011;4679;47.966;7.958;2023-03-23T09:29:30;1.60;;;1.50;;
9280;SDS011;4679;47.966;7.958;2023-03-23T09:31:32;1.73;;;1.57;;
9280;SDS011;4679;47.966;7.958;2023-03-23T09:33:38;2.23;;;1.30;;
9280;SDS011;4679;47.966;7.958;2023-03-23T09:35:40;1.40;;;1.30;;
9280;SDS011;4679;47.966;7.958;2023-03-23T09:37:43;2.43;;;1.67;;
9280;SDS011;4679;47.966;7.958;2023-03-23T09:39:46;1.50;;;1.30;;
9280;SDS011;4679;47.966;7.958;2023-03-23T09:41:57;2.93;;;1.43;;
9280;SDS011;4679;47.966;7.958;2023-03-23T09:44:09;1.47;;;1.37;;
9280;SDS011;4679;47.966;7.958;2023-03-23T09:46:22;1.30;;;1.20;;
9280;SDS011;4679;47.966;7.958;2023-03-23T09:48:35;2.10;;;1.50;;
9280;SDS011;4679;47.966;7.958;2023-03-23T09:50:46;2.80;;;1.33;;
9280;SDS011;4679;47.966;7.958;2023-03-23T09:52:53;2.70;;;1.20;;
9280;SDS011;4679;47.966;7.958;2023-03-23T09:54:58;2.50;;;1.30;;
9280;SDS011;4679;47.966;7.958;2023-03-23T09:57:00;2.70;;;1.33;;
9280;SDS011;4679;47.966;7.958;2023-03-23T09:59:05;1.73;;;1.20;;
9280;SDS011;4679;47.966;7.958;2023-03-23T10:01:15;1.20;;;1.10;;
9280;SDS011;4679;47.966;7.958;2023-03-23T10:03:24;1.97;;;0.90;;
9280;SDS011;4679;47.966;7.958;2023-03-23T10:05:31;1.37;;;1.10;;
9280;SDS011;4679;47.966;7.958;2023-03-23T10:07:34;0.87;;;0.87;;
9280;SDS011;4679;47.966;7.958;2023-03-23T10:09:36;1.10;;;1.00;;
9280;SDS011;4679;47.966;7.958;2023-03-23T10:11:41;1.00;;;1.00;;
9280;SDS011;4679;47.966;7.958;2023-03-23T10:13:55;0.90;;;0.90;;
9280;SDS011;4679;47.966;7.958;2023-03-23T10:16:08;2.40;;;1.00;;
9280;SDS011;4679;47.966;7.958;2023-03-23T10:18:14;1.27;;;0.90;;
9280;SDS011;4679;47.966;7.958;2023-03-23T10:20:21;2.30;;;1.00;;
9280;SDS011;4679;47.966;7.958;2023-03-23T10:22:31;1.30;;;1.20;;
9280;SDS011;4679;47.966;7.958;2023-03-23T10:24:39;2.87;;;1.10;;
9280;SDS011;4679;47.966;7.958;2023-03-23T10:26:48;1.67;;;1.00;;
9280;SDS011;4679;47.966;7.958;2023-03-23T10:28:57;1.90;;;1.00;;
9280;SDS011;4679;47.966;7.958;2023-03-23T10:31:02;0.70;;;0.70;;
9280;SDS011;4679;47.966;7.958;2023-03-23T10:33:10;0.70;;;0.70;;
9280;SDS011;4679;47.966;7.958;2023-03-23T10:35:18;0.50;;;0.50;;
9280;SDS011;4679;47.966;7.958;2023-03-23T10:37:24;1.27;;;0.60;;
9280;SDS011;4679;47.966;7.958;2023-03-23T10:39:33;0.60;;;0.60;;
9280;SDS011;4679;47.966;7.958;2023-03-23T10:41:44;0.80;;;0.70;;
9280;SDS011;4679;47.966;7.958;2023-03-23T10:43:46;0.60;;;0.60;;
9280;SDS011;4679;47.966;7.958;2023-03-23T10:45:51;0.50;;;0.50;;
9280;SDS011;4679;47.966;7.958;2023-03-23T10:47:59;0.57;;;0.53;;
9280;SDS011;4679;47.966;7.958;2023-03-23T10:50:10;0.80;;;0.70;;
9280;SDS011;4679;47.966;7.958;2023-03-23T10:52:26;0.43;;;0.43;;
9280;SDS011;4679;47.966;7.958;2023-03-23T10:54:35;0.40;;;0.40;;
9280;SDS011;4679;47.966;7.958;2023-03-23T10:56:40;0.80;;;0.60;;
9280;SDS011;4679;47.966;7.958;2023-03-23T10:58:42;1.33;;;0.60;;
9280;SDS011;4679;47.966;7.958;2023-03-23T11:00:45;0.53;;;0.53;;
9280;SDS011;4679;47.966;7.958;2023-03-23T11:02:57;0.47;;;0.47;;
9280;SDS011;4679;47.966;7.958;2023-03-23T11:05:01;0.50;;;0.50;;
9280;SDS011;4679;47.966;7.958;2023-03-23T11:07:04;0.80;;;0.80;;
9280;SDS011;4679;47.966;7.958;2023-03-23T11:09:14;0.40;;;0.40;;
9280;SDS011;4679;47.966;7.958;2023-03-23T11:11:19;0.70;;;0.70;;
9280;SDS011;4679;47.966;7.958;2023-03-23T11:13:28;1.07;;;0.50;;
9280;SDS011;4679;47.966;7.958;2023-03-23T11:15:32;0.50;;;0.50;;
9280;SDS011;4679;47.966;7.958;2023-03-23T11:17:37;0.50;;;0.50;;
9280;SDS011;4679;47.966;7.958;2023-03-23T11:19:39;2.10;;;0.50;;
9280;SDS011;4679;47.966;7.958;2023-03-23T11:21:45;0.50;;;0.50;;
9280;SDS011;4679;47.966;7.958;2023-03-23T11:23:49;1.20;;;0.50;;
9280;SDS011;4679;47.966;7.958;2023-03-23T11:25:57;0.53;;;0.53;;
9280;SDS011;4679;47.966;7.958;2023-03-23T11:28:02;0.50;;;0.50;;
9280;SDS011;4679;47.966;7.958;2023-03-23T11:30:08;0.83;;;0.50;;
9280;SDS011;4679;47.966;7.958;2023-03-23T11:32:12;0.50;;;0.40;;
9280;SDS011;4679;47.966;7.958;2023-03-23T11:34:16;0.97;;;0.50;;
9280;SDS011;4679;47.966;7.958;2023-03-23T11:36:20;0.50;;;0.50;;
9280;SDS011;4679;47.966;7.958;2023-03-23T11:38:29;1.20;;;0.50;;
9280;SDS011;4679;47.966;7.958;2023-03-23T11:40:32;0.87;;;0.80;;
9280;SDS011;4679;47.966;7.958;2023-03-23T11:42:37;1.33;;;0.40;;
9280;SDS011;4679;47.966;7.958;2023-03-23T11:44:44;0.93;;;0.60;;
9280;SDS011;4679;47.966;7.958;2023-03-23T11:46:48;0.50;;;0.50;;
9280;SDS011;4679;47.966;7.958;2023-03-23T11:48:57;0.50;;;0.50;;
9280;SDS011;4679;47.966;7.958;2023-03-23T11:51:04;0.43;;;0.43;;
9280;SDS011;4679;47.966;7.958;2023-03-23T11:53:10;0.87;;;0.60;;
9280;SDS011;4679;47.966;7.958;2023-03-23T11:55:20;0.50;;;0.50;;
9280;SDS011;4679;47.966;7.958;2023-03-23T11:57:25;0.97;;;0.40;;
9280;SDS011;4679;47.966;7.958;2023-03-23T11:59:29;1.07;;;1.07;;
9280;SDS011;4679;47.966;7.958;2023-03-23T12:01:39;0.50;;;0.50;;
9280;SDS011;4679;47.966;7.958;2023-03-23T12:04:09;0.50;;;0.50;;
9280;SDS011;4679;47.966;7.958;2023-03-23T12:06:32;1.70;;;0.60;;
9280;SDS011;4679;47.966;7.958;2023-03-23T12:08:47;0.60;;;0.60;;
9280;SDS011;4679;47.966;7.958;2023-03-23T12:10:59;2.37;;;0.50;;
9280;SDS011;4679;47.966;7.958;2023-03-23T12:13:19;0.50;;;0.50;;
9280;SDS011;4679;47.966;7.958;2023-03-23T12:15:34;0.40;;;0.40;;
9280;SDS011;4679;47.966;7.958;2023-03-23T12:17:46;0.93;;;0.50;;
9280;SDS011;4679;47.966;7.958;2023-03-23T12:19:58;0.50;;;0.50;;
9280;SDS011;4679;47.966;7.958;2023-03-23T12:22:22;1.17;;;0.60;;
9280;SDS011;4679;47.966;7.958;2023-03-23T12:24:39;0.93;;;0.53;;
9280;SDS011;4679;47.966;7.958;2023-03-23T12:26:52;0.60;;;0.50;;
9280;SDS011;4679;47.966;7.958;2023-03-23T12:31:30;0.80;;;0.70;;
9280;SDS011;4679;47.966;7.958;2023-03-23T12:33:44;1.33;;;0.60;;
9280;SDS011;4679;47.966;7.958;2023-03-23T12:35:57;0.77;;;0.63;;
9280;SDS011;4679;47.966;7.958;2023-03-23T12:38:16;1.30;;;0.80;;
9280;SDS011;4679;47.966;7.958;2023-03-23T12:40:33;1.47;;;0.70;;
9280;SDS011;4679;47.966;7.958;2023-03-23T12:42:49;0.70;;;0.60;;
9280;SDS011;4679;47.966;7.958;2023-03-23T12:45:00;1.20;;;0.60;;
9280;SDS011;4679;47.966;7.958;2023-03-23T12:47:13;0.57;;;0.50;;
9280;SDS011;4679;47.966;7.958;2023-03-23T12:49:29;1.93;;;0.60;;
9280;SDS011;4679;47.966;7.958;2023-03-23T12:51:37;0.60;;;0.60;;
9280;SDS011;4679;47.966;7.958;2023-03-23T12:53:47;1.47;;;0.50;;
9280;SDS011;4679;47.966;7.958;2023-03-23T12:56:04;1.13;;;0.70;;
9280;SDS011;4679;47.966;7.958;2023-03-23T12:58:14;1.27;;;0.70;;
9280;SDS011;4679;47.966;7.958;2023-03-23T13:00:20;0.90;;;0.53;;
9280;SDS011;4679;47.966;7.958;2023-03-23T13:02:27;0.60;;;0.60;;
9280;SDS011;4679;47.966;7.958;2023-03-23T13:04:35;1.07;;;0.50;;
9280;SDS011;4679;47.966;7.958;2023-03-23T13:06:41;1.50;;;0.50;;
9280;SDS011;4679;47.966;7.958;2023-03-23T13:08:44;1.37;;;0.60;;
9280;SDS011;4679;47.966;7.958;2023-03-23T13:10:51;0.60;;;0.60;;
9280;SDS011;4679;47.966;7.958;2023-03-23T13:12:56;0.60;;;0.60;;
9280;SDS011;4679;47.966;7.958;2023-03-23T13:15:00;1.10;;;0.60;;
9280;SDS011;4679;47.966;7.958;2023-03-23T13:17:13;0.90;;;0.60;;
9280;SDS011;4679;47.966;7.958;2023-03-23T13:19:25;0.93;;;0.70;;
9280;SDS011;4679;47.966;7.958;2023-03-23T13:21:34;0.63;;;0.63;;
9280;SDS011;4679;47.966;7.958;2023-03-23T13:23:44;0.57;;;0.57;;
9280;SDS011;4679;47.966;7.958;2023-03-23T13:25:50;0.60;;;0.50;;
9280;SDS011;4679;47.966;7.958;2023-03-23T13:27:57;0.90;;;0.57;;
9280;SDS011;4679;47.966;7.958;2023-03-23T13:30:01;0.63;;;0.60;;
9280;SDS011;4679;47.966;7.958;2023-03-23T13:32:06;0.80;;;0.70;;
9280;SDS011;4679;47.966;7.958;2023-03-23T13:34:14;0.73;;;0.70;;
9280;SDS011;4679;47.966;7.958;2023-03-23T13:36:23;0.50;;;0.50;;
9280;SDS011;4679;47.966;7.958;2023-03-23T13:38:31;0.93;;;0.70;;
9280;SDS011;4679;47.966;7.958;2023-03-23T13:40:33;1.73;;;0.63;;
9280;SDS011;4679;47.966;7.958;2023-03-23T13:42:34;1.50;;;1.33;;
9280;SDS011;4679;47.966;7.958;2023-03-23T13:44:41;0.70;;;0.60;;
9280;SDS011;4679;47.966;7.958;2023-03-23T13:47:08;0.70;;;0.70;;
9280;SDS011;4679;47.966;7.958;2023-03-23T13:49:22;0.93;;;0.50;;
9280;SDS011;4679;47.966;7.958;2023-03-23T13:51:31;0.53;;;0.50;;
9280;SDS011;4679;47.966;7.958;2023-03-23T13:53:44;0.60;;;0.60;;
9280;SDS011;4679;47.966;7.958;2023-03-23T13:55:48;1.07;;;0.70;;
9280;SDS011;4679;47.966;7.958;2023-03-23T13:57:51;0.47;;;0.47;;
9280;SDS011;4679;47.966;7.958;2023-03-23T13:59:57;1.97;;;0.77;;
9280;SDS011;4679;47.966;7.958;2023-03-23T14:04:31;0.43;;;0.43;;
9280;SDS011;4679;47.966;7.958;2023-03-23T14:06:33;0.50;;;0.50;;
9280;SDS011;4679;47.966;7.958;2023-03-23T14:08:40;0.60;;;0.60;;
9280;SDS011;4679;47.966;7.958;2023-03-23T14:10:49;0.60;;;0.60;;
9280;SDS011;4679;47.966;7.958;2023-03-23T14:12:54;1.27;;;0.43;;
9280;SDS011;4679;47.966;7.958;2023-03-23T14:14:56;0.80;;;0.60;;
9280;SDS011;4679;47.966;7.958;2023-03-23T14:17:08;0.60;;;0.60;;
9280;SDS011;4679;47.966;7.958;2023-03-23T14:19:15;1.70;;;0.50;;
9280;SDS011;4679;47.966;7.958;2023-03-23T14:21:26;1.90;;;0.60;;
9280;SDS011;4679;47.966;7.958;2023-03-23T14:23:33;1.33;;;0.80;;
9280;SDS011;4679;47.966;7.958;2023-03-23T14:25:35;2.53;;;0.60;;
9280;SDS011;4679;47.966;7.958;2023-03-23T14:27:38;0.93;;;0.70;;
9280;SDS011;4679;47.966;7.958;2023-03-23T14:29:41;0.70;;;0.60;;
9280;SDS011;4679;47.966;7.958;2023-03-23T14:31:44;0.90;;;0.63;;
9280;SDS011;4679;47.966;7.958;2023-03-23T14:33:45;0.80;;;0.50;;
9280;SDS011;4679;47.966;7.958;2023-03-23T14:35:49;0.53;;;0.50;;
9280;SDS011;4679;47.966;7.958;2023-03-23T14:37:51;1.00;;;0.80;;
9280;SDS011;4679;47.966;7.958;2023-03-23T14:39:53;1.00;;;0.50;;
9280;SDS011;4679;47.966;7.958;2023-03-23T14:42:00;0.97;;;0.60;;
9280;SDS011;4679;47.966;7.958;2023-03-23T14:44:06;0.50;;;0.50;;
9280;SDS011;4679;47.966;7.958;2023-03-23T14:46:10;0.40;;;0.40;;
9280;SDS011;4679;47.966;7.958;2023-03-23T14:48:14;0.50;;;0.50;;
9280;SDS011;4679;47.966;7.958;2023-03-23T14:50:27;0.60;;;0.60;;
9280;SDS011;4679;47.966;7.958;2023-03-23T14:52:34;0.77;;;0.50;;
9280;SDS011;4679;47.966;7.958;2023-03-23T14:54:37;0.53;;;0.53;;
9280;SDS011;4679;47.966;7.958;2023-03-23T14:56:41;0.80;;;0.60;;
9280;SDS011;4679;47.966;7.958;2023-03-23T14:58:44;1.20;;;1.17;;
9280;SDS011;4679;47.966;7.958;2023-03-23T15:00:49;0.97;;;0.87;;
9280;SDS011;4679;47.966;7.958;2023-03-23T15:02:56;1.00;;;1.00;;
9280;SDS011;4679;47.966;7.958;2023-03-23T15:05:01;0.60;;;0.60;;
9280;SDS011;4679;47.966;7.958;2023-03-23T15:07:10;0.50;;;0.50;;
9280;SDS011;4679;47.966;7.958;2023-03-23T15:09:16;0.70;;;0.60;;
9280;SDS011;4679;47.966;7.958;2023-03-23T15:11:23;1.33;;;0.80;;
9280;SDS011;4679;47.966;7.958;2023-03-23T15:13:28;1.33;;;0.70;;
9280;SDS011;4679;47.966;7.958;2023-03-23T15:15:31;1.90;;;0.60;;
9280;SDS011;4679;47.966;7.958;2023-03-23T15:17:36;1.57;;;0.70;;
9280;SDS011;4679;47.966;7.958;2023-03-23T15:19:40;0.80;;;0.73;;
9280;SDS011;4679;47.966;7.958;2023-03-23T15:21:47;2.30;;;0.50;;
9280;SDS011;4679;47.966;7.958;2023-03-23T15:23:52;1.47;;;0.80;;
9280;SDS011;4679;47.966;7.958;2023-03-23T15:25:55;0.93;;;0.70;;
9280;SDS011;4679;47.966;7.958;2023-03-23T15:27:58;0.60;;;0.60;;
9280;SDS011;4679;47.966;7.958;2023-03-23T15:30:18;0.70;;;0.70;;
9280;SDS011;4679;47.966;7.958;2023-03-23T15:32:31;1.13;;;0.80;;
9280;SDS011;4679;47.966;7.958;2023-03-23T15:34:41;0.90;;;0.67;;
9280;SDS011;4679;47.966;7.958;2023-03-23T15:36:46;0.70;;;0.60;;
9280;SDS011;4679;47.966;7.958;2023-03-23T15:38:53;1.37;;;1.27;;
9280;SDS011;4679;47.966;7.958;2023-03-23T15:40:55;1.73;;;0.80;;
9280;SDS011;4679;47.966;7.958;2023-03-23T15:43:05;0.90;;;0.67;;
9280;SDS011;4679;47.966;7.958;2023-03-23T15:47:35;1.50;;;0.70;;
9280;SDS011;4679;47.966;7.958;2023-03-23T15:49:39;0.70;;;0.70;;
9280;SDS011;4679;47.966;7.958;2023-03-23T15:51:41;0.70;;;0.60;;
9280;SDS011;4679;47.966;7.958;2023-03-23T15:53:43;0.80;;;0.60;;
9280;SDS011;4679;47.966;7.958;2023-03-23T15:55:45;0.70;;;0.70;;
9280;SDS011;4679;47.966;7.958;2023-03-23T15:57:47;1.37;;;0.77;;
9280;SDS011;4679;47.966;7.958;2023-03-23T15:59:50;1.27;;;0.77;;
9280;SDS011;4679;47.966;7.958;2023-03-23T16:01:51;1.17;;;0.70;;
9280;SDS011;4679;47.966;7.958;2023-03-23T16:03:54;0.70;;;0.70;;
9280;SDS011;4679;47.966;7.958;2023-03-23T16:06:09;0.53;;;0.53;;
9280;SDS011;4679;47.966;7.958;2023-03-23T16:08:12;0.87;;;0.77;;
9280;SDS011;4679;47.966;7.958;2023-03-23T16:10:16;0.90;;;0.60;;
9280;SDS011;4679;47.966;7.958;2023-03-23T16:12:19;0.80;;;0.80;;
9280;SDS011;4679;47.966;7.958;2023-03-23T16:14:21;2.10;;;0.60;;
9280;SDS011;4679;47.966;7.958;2023-03-23T16:16:23;0.70;;;0.70;;
9280;SDS011;4679;47.966;7.958;2023-03-23T16:18:27;1.90;;;0.80;;
9280;SDS011;4679;47.966;7.958;2023-03-23T16:20:29;3.10;;;0.70;;
9280;SDS011;4679;47.966;7.958;2023-03-23T16:22:33;0.60;;;0.50;;
9280;SDS011;4679;47.966;7.958;2023-03-23T16:24:35;1.27;;;0.60;;
9280;SDS011;4679;47.966;7.958;2023-03-23T16:26:37;0.70;;;0.70;;
9280;SDS011;4679;47.966;7.958;2023-03-23T16:28:40;0.63;;;0.60;;
9280;SDS011;4679;47.966;7.958;2023-03-23T16:30:43;2.83;;;0.73;;
9280;SDS011;4679;47.966;7.958;2023-03-23T16:32:45;1.80;;;0.80;;
9280;SDS011;4679;47.966;7.958;2023-03-23T16:34:46;3.60;;;0.90;;
9280;SDS011;4679;47.966;7.958;2023-03-23T16:36:48;0.60;;;0.60;;
9280;SDS011;4679;47.966;7.958;2023-03-23T16:38:51;0.80;;;0.70;;
9280;SDS011;4679;47.966;7.958;2023-03-23T16:40:53;1.40;;;0.83;;
9280;SDS011;4679;47.966;7.958;2023-03-23T16:42:55;0.70;;;0.70;;
9280;SDS011;4679;47.966;7.958;2023-03-23T16:44:56;0.87;;;0.80;;
9280;SDS011;4679;47.966;7.958;2023-03-23T16:46:58;2.40;;;0.70;;
9280;SDS011;4679;47.966;7.958;2023-03-23T16:49:00;0.70;;;0.70;;
9280;SDS011;4679;47.966;7.958;2023-03-23T16:51:02;0.50;;;0.50;;
9280;SDS011;4679;47.966;7.958;2023-03-23T16:53:04;2.33;;;0.53;;
9280;SDS011;4679;47.966;7.958;2023-03-23T16:55:09;0.57;;;0.50;;
9280;SDS011;4679;47.966;7.958;2023-03-23T16:57:12;0.70;;;0.60;;
9280;SDS011;4679;47.966;7.958;2023-03-23T16:59:14;2.37;;;1.00;;
9280;SDS011;4679;47.966;7.958;2023-03-23T17:01:16;1.33;;;0.97;;
9280;SDS011;4679;47.966;7.958;2023-03-23T17:03:19;1.40;;;1.30;;
9280;SDS011;4679;47.966;7.958;2023-03-23T17:05:22;7.70;;;6.20;;
9280;SDS011;4679;47.966;7.958;2023-03-23T17:07:25;2.30;;;2.10;;
9280;SDS011;4679;47.966;7.958;2023-03-23T17:09:27;5.17;;;4.23;;
9280;SDS011;4679;47.966;7.958;2023-03-23T17:11:31;4.17;;;3.77;;
9280;SDS011;4679;47.966;7.958;2023-03-23T17:13:32;10.13;;;7.77;;
9280;SDS011;4679;47.966;7.958;2023-03-23T17:15:35;2.93;;;2.67;;
9280;SDS011;4679;47.966;7.958;2023-03-23T17:17:37;1.70;;;0.90;;
9280;SDS011;4679;47.966;7.958;2023-03-23T17:19:39;0.87;;;0.70;;
9280;SDS011;4679;47.966;7.958;2023-03-23T17:21:41;2.70;;;1.53;;
9280;SDS011;4679;47.966;7.958;2023-03-23T17:23:42;0.90;;;0.90;;
9280;SDS011;4679;47.966;7.958;2023-03-23T17:25:45;1.13;;;0.63;;
9280;SDS011;4679;47.966;7.958;2023-03-23T17:27:49;1.03;;;0.63;;
9280;SDS011;4679;47.966;7.958;2023-03-23T17:29:51;0.80;;;0.80;;
9280;SDS011;4679;47.966;7.958;2023-03-23T17:31:52;0.70;;;0.70;;
9280;SDS011;4679;47.966;7.958;2023-03-23T17:33:54;1.17;;;0.80;;
9280;SDS011;4679;47.966;7.958;2023-03-23T17:35:56;0.63;;;0.63;;
9280;SDS011;4679;47.966;7.958;2023-03-23T17:37:58;0.73;;;0.70;;
9280;SDS011;4679;47.966;7.958;2023-03-23T17:40:00;0.80;;;0.60;;
9280;SDS011;4679;47.966;7.958;2023-03-23T17:42:03;0.70;;;0.60;;
9280;SDS011;4679;47.966;7.958;2023-03-23T17:44:06;1.47;;;0.80;;
9280;SDS011;4679;47.966;7.958;2023-03-23T17:46:08;0.80;;;0.60;;
9280;SDS011;4679;47.966;7.958;2023-03-23T17:48:11;0.50;;;0.50;;
9280;SDS011;4679;47.966;7.958;2023-03-23T17:50:12;0.70;;;0.70;;
9280;SDS011;4679;47.966;7.958;2023-03-23T17:52:14;0.63;;;0.63;;
9280;SDS011;4679;47.966;7.958;2023-03-23T17:54:16;0.60;;;0.60;;
9280;SDS011;4679;47.966;7.958;2023-03-23T17:56:18;1.07;;;0.53;;
9280;SDS011;4679;47.966;7.958;2023-03-23T17:58:19;1.70;;;0.60;;
9280;SDS011;4679;47.966;7.958;2023-03-23T18:00:23;1.10;;;0.97;;
9280;SDS011;4679;47.966;7.958;2023-03-23T18:02:24;0.70;;;0.70;;
9280;SDS011;4679;47.966;7.958;2023-03-23T18:04:26;0.97;;;0.60;;
9280;SDS011;4679;47.966;7.958;2023-03-23T18:06:28;1.07;;;0.87;;
9280;SDS011;4679;47.966;7.958;2023-03-23T18:08:31;1.07;;;0.60;;
9280;SDS011;4679;47.966;7.958;2023-03-23T18:10:34;0.57;;;0.57;;
9280;SDS011;4679;47.966;7.958;2023-03-23T18:12:38;2.43;;;1.00;;
9280;SDS011;4679;47.966;7.958;2023-03-23T18:14:40;2.93;;;1.50;;
9280;SDS011;4679;47.966;7.958;2023-03-23T18:16:44;1.70;;;1.20;;
9280;SDS011;4679;47.966;7.958;2023-03-23T18:18:46;2.30;;;0.70;;
9280;SDS011;4679;47.966;7.958;2023-03-23T18:20:52;0.97;;;0.80;;
9280;SDS011;4679;47.966;7.958;2023-03-23T18:22:54;0.90;;;0.90;;
9280;SDS011;4679;47.966;7.958;2023-03-23T18:24:56;1.20;;;0.90;;
9280;SDS011;4679;47.966;7.958;2023-03-23T18:26:58;0.80;;;0.80;;
9280;SDS011;4679;47.966;7.958;2023-03-23T18:29:01;1.10;;;1.00;;
9280;SDS011;4679;47.966;7.958;2023-03-23T18:31:03;1.03;;;0.93;;
9280;SDS011;4679;47.966;7.958;2023-03-23T18:33:08;1.30;;;1.20;;
9280;SDS011;4679;47.966;7.958;2023-03-23T18:35:10;1.20;;;1.00;;
9280;SDS011;4679;47.966;7.958;2023-03-23T18:37:12;1.10;;;1.03;;
9280;SDS011;4679;47.966;7.958;2023-03-23T18:39:14;1.40;;;1.00;;
9280;SDS011;4679;47.966;7.958;2023-03-23T18:41:16;2.10;;;1.00;;
9280;SDS011;4679;47.966;7.958;2023-03-23T18:43:18;1.57;;;1.10;;
9280;SDS011;4679;47.966;7.958;2023-03-23T18:45:20;1.30;;;1.20;;
9280;SDS011;4679;47.966;7.958;2023-03-23T18:47:22;2.23;;;0.93;;
9280;SDS011;4679;47.966;7.958;2023-03-23T18:49:25;1.40;;;1.20;;
9280;SDS011;4679;47.966;7.958;2023-03-23T18:51:27;1.90;;;1.20;;
9280;SDS011;4679;47.966;7.958;2023-03-23T18:53:30;1.30;;;1.20;;
9280;SDS011;4679;47.966;7.958;2023-03-23T18:55:32;1.30;;;1.20;;
9280;SDS011;4679;47.966;7.958;2023-03-23T18:57:33;1.40;;;1.20;;
9280;SDS011;4679;47.966;7.958;2023-03-23T18:59:35;1.77;;;1.30;;
9280;SDS011;4679;47.966;7.958;2023-03-23T19:01:37;1.33;;;1.13;;
9280;SDS011;4679;47.966;7.958;2023-03-23T19:03:39;2.73;;;1.40;;
9280;SDS011;4679;47.966;7.958;2023-03-23T19:05:43;1.20;;;1.10;;
9280;SDS011;4679;47.966;7.958;2023-03-23T19:07:45;0.97;;;0.97;;
9280;SDS011;4679;47.966;7.958;2023-03-23T19:09:46;1.10;;;1.00;;
9280;SDS011;4679;47.966;7.958;2023-03-23T19:11:48;1.50;;;1.40;;
9280;SDS011;4679;47.966;7.958;2023-03-23T19:13:50;1.30;;;1.20;;
9280;SDS011;4679;47.966;7.958;2023-03-23T19:15:52;1.23;;;1.00;;
9280;SDS011;4679;47.966;7.958;2023-03-23T19:17:54;1.73;;;0.80;;
9280;SDS011;4679;47.966;7.958;2023-03-23T19:19:56;1.00;;;1.00;;
9280;SDS011;4679;47.966;7.958;2023-03-23T19:21:59;1.13;;;1.03;;
9280;SDS011;4679;47.966;7.958;2023-03-23T19:24:01;1.67;;;0.80;;
9280;SDS011;4679;47.966;7.958;2023-03-23T19:26:04;0.70;;;0.70;;
9280;SDS011;4679;47.966;7.958;2023-03-23T19:28:06;0.77;;;0.70;;
9280;SDS011;4679;47.966;7.958;2023-03-23T19:30:07;0.70;;;0.70;;
9280;SDS011;4679;47.966;7.958;2023-03-23T19:32:10;1.17;;;0.80;;
9280;SDS011;4679;47.966;7.958;2023-03-23T19:34:12;0.90;;;0.90;;
9280;SDS011;4679;47.966;7.958;2023-03-23T19:36:14;1.43;;;0.90;;
9280;SDS011;4679;47.966;7.958;2023-03-23T19:38:19;0.80;;;0.70;;
9280;SDS011;4679;47.966;7.958;2023-03-23T19:40:21;1.00;;;0.90;;
9280;SDS011;4679;47.966;7.958;2023-03-23T19:42:23;1.73;;;0.80;;
9280;SDS011;4679;47.966;7.958;2023-03-23T19:44:25;1.17;;;0.90;;
9280;SDS011;4679;47.966;7.958;2023-03-23T19:46:26;0.90;;;0.90;;
9280;SDS011;4679;47.966;7.958;2023-03-23T19:48:28;2.50;;;0.80;;
9280;SDS011;4679;47.966;7.958;2023-03-23T19:50:30;1.10;;;1.00;;
9280;SDS011;4679;47.966;7.958;2023-03-23T19:52:34;0.83;;;0.83;;
9280;SDS011;4679;47.966;7.958;2023-03-23T19:54:37;1.70;;;0.97;;
9280;SDS011;4679;47.966;7.958;2023-03-23T19:56:39;2.33;;;1.40;;
9280;SDS011;4679;47.966;7.958;2023-03-23T19:58:42;1.40;;;1.10;;
9280;SDS011;4679;47.966;7.958;2023-03-23T20:00:43;1.07;;;0.80;;
9280;SDS011;4679;47.966;7.958;2023-03-23T20:02:45;1.40;;;0.87;;
9280;SDS011;4679;47.966;7.958;2023-03-23T20:04:47;1.10;;;1.00;;
9280;SDS011;4679;47.966;7.958;2023-03-23T20:06:49;1.27;;;0.80;;
9280;SDS011;4679;47.966;7.958;2023-03-23T20:08:51;2.47;;;1.00;;